Terminal Aerodrome Forecast
Issued by NWS Northern Indiana

Home | Current Version | Previous Version | Text Only | Print | Product List | Glossary On
Versions: 1 2 3 4 5 6 7 8 9 10 11 12 13 14 15 16 17
966
FTUS43 KIWX 221727
TAFFWA
TAF
KFWA 221727Z 2218/2318 26012G19KT P6SM SCT035 BKN150
     FM230000 22005KT P6SM OVC100=

USA.gov is the U.S. government's official web portal to all federal, state and local government web resources and services.